Terminal Aerodrome Forecast
Issued by NWS

Home | Current Version | Previous Version | Text Only | Print | Product List | Glossary On
Versions: 1 2 3 4 5 6 7 8 9 10 11 12 13 14 15 16 17 18 19 20 21 22 23 24 25 26 27 28 29
000
FTUS43 KDTX 241100
TAFYIP
TAF
KYIP 241121Z 2412/2512 35007KT P6SM SKC
     FM241500 02008KT P6SM SCT060
     FM242300 12003KT P6SM SKC=

USA.gov is the U.S. government's official web portal to all federal, state and local government web resources and services.